Date,TemperatureHighF,TemperatureAvgF,TemperatureLowF,DewpointHighF,DewpointAvgF,DewpointLowF,HumidityHigh,HumidityAvg,HumidityLow,PressureMaxIn,PressureMinIn,WindSpeedMaxMPH,WindSpeedAvgMPH,GustSpeedMaxMPH,PrecipitationSumIn
2013-1-1,35.0,25.4,16.5,29.4,18.6,11.4,89,75,65,30.07,29.86,22,10,48,0.00
2013-1-2,25.0,20.9,15.2,22.8,16.5,10.2,93,83,71,30.25,30.00,13,6,31,0.00
2013-1-3,30.0,27.9,23.1,26.5,23.7,20.9,91,84,76,30.14,30.00,10,6,23,0.00
2013-1-4,34.5,31.7,28.0,27.0,24.9,21.5,84,76,72,30.03,29.89,20,11,42,0.04
2013-1-5,36.1,33.3,31.3,28.7,26.1,24.0,78,75,64,30.31,30.03,14,5,27,0.09
2013-1-6,38.4,35.6,31.7,33.6,30.7,24.7,91,82,75,30.09,29.90,10,6,20,0.28
2013-1-7,36.1,29.0,25.4,33.2,24.0,21.6,89,82,70,30.43,30.09,10,5,20,0.00
2013-1-8,39.7,33.8,29.2,27.9,24.3,21.0,79,68,62,30.34,30.18,10,5,20,0.08
2013-1-9,48.9,38.5,29.5,37.6,29.6,22.8,82,70,60,30.32,29.95,20,10,55,0.16
2013-1-10,41.2,38.2,35.0,33.2,30.1,27.4,81,73,61,30.61,30.33,21,6,34,0.00
2013-1-11,45.2,40.1,34.8,41.8,34.3,28.6,92,80,65,30.46,29.91,15,9,31,0.21
2013-1-12,57.7,49.2,41.1,50.5,45.2,38.9,95,87,77,30.02,29.96,9,6,18,0.00
2013-1-13,68.5,56.2,47.0,57.9,51.3,44.4,93,84,68,29.99,29.73,16,7,28,0.00
2013-1-14,53.6,37.6,30.0,50.7,30.5,21.3,93,76,66,30.40,29.73,18,8,29,0.02
2013-1-15,33.9,30.5,28.9,24.2,22.3,20.0,79,71,58,30.42,30.21,8,2,19,0.00
2013-1-16,38.8,33.5,29.8,30.9,26.7,23.5,85,76,64,30.21,29.79,9,4,20,0.00
2013-1-17,37.2,26.4,18.3,30.4,19.1,11.1,94,74,62,30.21,29.85,17,8,40,0.00
2013-1-18,32.7,21.7,14.9,17.9,13.2,7.3,90,71,50,30.45,30.06,13,5,21,0.00
2013-1-19,49.3,43.0,32.8,31.0,25.7,17.5,58,50,39,30.07,29.60,15,8,29,0.00
2013-1-20,49.6,32.2,20.2,36.5,20.8,11.0,90,64,43,30.08,29.44,30,15,63,0.01
2013-1-21,22.6,20.1,15.7,14.9,11.1,8.0,77,68,62,30.08,29.89,17,6,43,0.00
2013-1-22,15.7,11.8,8.6,8.2,1.8,-4.1,88,65,46,30.21,29.91,27,13,53,0.00
2013-1-23,12.3,8.5,4.4,9.4,5.3,1.1,97,87,78,30.27,30.15,16,4,28,0.00
2013-1-24,13.6,10.2,5.7,10.3,6.7,2.6,92,85,78,30.55,30.14,20,6,42,0.00
2013-1-25,16.9,12.6,9.3,12.5,9.2,6.7,92,86,74,30.53,30.13,7,3,21,0.00
2013-1-26,23.2,16.3,8.2,18.6,12.1,5.4,89,83,66,30.42,30.13,9,3,21,0.00
2013-1-27,26.3,22.7,19.9,18.9,16.5,14.4,87,77,66,30.59,30.41,7,3,18,0.05
2013-1-28,41.5,32.7,22.8,40.7,29.6,17.3,97,89,71,30.40,29.87,9,5,20,0.64
2013-1-29,54.6,40.5,32.0,53.2,39.9,31.2,99,97,95,30.08,29.76,10,5,19,0.35
2013-1-30,65.4,58.1,51.9,56.8,51.8,49.4,96,80,65,29.76,29.03,24,9,34,0.05
2013-1-31,56.2,32.6,23.5,52.4,23.2,10.6,93,69,46,29.70,29.01,28,15,57,0.20
2013-2-1,23.9,20.7,19.0,18.3,14.3,9.5,92,77,59,30.20,29.70,26,12,55,0.00
2013-2-2,21.8,19.0,15.9,15.4,11.5,7.4,83,72,63,30.21,30.00,11,6,21,0.00
2013-2-3,25.1,20.2,14.9,17.7,14.7,12.0,89,79,60,30.00,29.81,11,4,24,0.00
2013-2-4,22.7,20.2,17.6,16.0,12.6,9.4,89,72,57,29.97,29.87,14,7,36,0.00
2013-2-5,26.9,22.1,16.7,19.3,15.9,11.6,91,77,65,30.00,29.87,8,2,14,0.00
2013-2-6,28.7,24.2,19.5,24.8,16.5,8.7,90,73,56,30.42,29.89,19,8,44,0.00
2013-2-7,31.0,23.7,17.7,24.4,15.0,10.7,91,69,57,30.48,30.13,12,6,20,0.00
2013-2-8,33.4,29.2,19.6,32.2,25.3,17.9,96,86,62,30.13,29.81,14,7,29,0.01
2013-2-9,21.6,18.7,14.4,19.0,16.5,12.2,94,91,89,30.44,30.10,12,6,29,0.00
2013-2-10,35.4,22.6,10.1,25.3,17.1,7.7,100,80,62,30.44,29.99,11,7,25,0.00
2013-2-11,52.4,39.3,34.3,42.3,31.5,25.3,86,74,61,30.00,29.56,20,12,54,0.14
2013-2-12,35.6,33.9,32.1,30.9,27.8,24.5,90,78,65,29.97,29.70,15,9,31,0.00
2013-2-13,38.2,32.4,28.4,26.2,25.2,22.2,86,75,58,29.93,29.75,7,2,15,0.00
2013-2-14,39.2,33.4,27.1,35.5,28.5,23.2,94,83,63,29.94,29.80,9,4,17,0.16
2013-2-15,39.4,34.9,25.9,36.1,25.4,17.3,94,69,53,30.07,29.79,18,9,47,0.01
2013-2-16,27.7,24.5,22.7,21.2,18.1,16.1,88,76,66,30.07,29.95,7,3,18,0.00
2013-2-17,22.7,16.6,12.8,19.1,12.2,7.5,91,83,70,30.20,29.92,33,12,54,0.00
2013-2-18,31.2,21.6,12.9,18.1,13.0,7.3,89,70,53,30.32,29.95,21,6,50,0.00
2013-2-19,44.9,34.7,27.1,36.9,25.5,18.0,89,70,54,29.95,29.55,15,10,32,0.13
2013-2-20,27.1,23.2,20.3,19.7,15.7,12.4,84,73,62,30.06,29.76,21,12,48,0.00
2013-2-21,22.8,18.4,13.6,18.3,14.3,9.7,89,84,80,30.45,30.04,26,12,54,0.00
2013-2-22,35.3,27.8,21.2,29.7,22.8,16.9,95,82,69,30.43,30.04,14,6,25,0.00
2013-2-23,40.0,35.1,32.5,34.2,30.3,25.3,94,83,74,30.04,29.88,9,5,18,0.10
2013-2-24,33.7,31.9,30.3,29.2,26.4,24.1,92,80,70,30.07,29.86,12,5,20,0.01
2013-2-25,36.5,34.0,31.8,29.9,28.8,26.8,86,81,68,30.26,30.07,9,3,19,0.00
2013-2-26,42.9,35.5,28.0,32.6,28.6,25.4,95,77,56,30.26,29.88,15,7,28,0.09
2013-2-27,35.7,33.8,32.9,34.9,32.7,31.6,97,96,95,29.88,29.58,10,4,18,1.86
2013-2-28,37.8,34.9,33.1,34.4,33.1,32.2,100,93,83,29.73,29.55,7,4,14,1.18
2013-3-1,34.6,30.9,28.2,33.1,27.3,22.9,94,86,78,29.93,29.73,13,8,22,0.01
2013-3-2,28.3,25.3,23.4,24.0,21.9,19.8,93,87,77,29.96,29.89,12,6,20,0.00
2013-3-3,25.5,23.3,21.7,22.4,19.4,16.1,94,85,74,29.91,29.87,13,7,34,0.00
2013-3-4,30.1,26.4,22.7,23.4,20.5,17.7,87,78,69,30.06,29.90,20,12,44,0.00
2013-3-5,31.0,27.8,25.9,25.8,23.2,21.1,90,83,77,30.12,30.00,10,4,22,0.01
2013-3-6,38.7,33.4,25.0,34.0,29.4,21.8,89,85,75,30.16,29.99,10,5,17,0.00
2013-3-7,36.1,34.7,32.5,34.1,30.6,24.1,93,85,71,30.29,30.15,8,4,15,0.00
2013-3-8,38.9,35.2,32.0,28.1,25.5,23.0,77,68,54,30.41,30.27,13,6,21,0.00
2013-3-9,44.9,36.4,28.8,34.3,28.9,24.1,92,75,56,30.43,30.25,8,3,15,0.00
2013-3-10,62.1,50.2,36.1,32.5,28.9,25.1,69,46,29,30.25,29.98,13,8,24,0.00
2013-3-11,55.5,52.5,49.9,45.5,33.4,29.1,69,48,42,30.00,29.67,18,10,36,0.00
2013-3-12,56.0,41.6,35.9,47.7,35.5,28.8,93,79,69,29.92,29.67,13,7,25,0.63
2013-3-13,38.7,33.4,24.6,30.4,25.9,19.3,89,74,58,29.94,29.82,16,7,31,0.00
2013-3-14,31.4,25.7,20.4,20.1,13.4,7.0,89,61,36,30.07,29.94,34,16,66,0.00
2013-3-15,39.1,32.0,26.2,32.3,24.1,15.3,94,73,54,30.06,29.72,18,9,29,0.05
2013-3-16,31.0,25.7,21.6,20.9,18.1,16.1,84,73,62,30.00,29.87,10,5,18,0.00
2013-3-17,28.0,25.3,21.2,22.2,16.1,8.3,91,69,50,30.37,30.00,12,5,25,0.01
2013-3-18,34.7,26.4,19.4,30.0,17.9,9.1,95,72,44,30.37,29.77,17,8,31,0.00
2013-3-19,37.5,32.7,27.2,34.1,27.9,20.5,94,83,61,29.84,29.70,16,7,34,0.09
2013-3-20,33.9,28.3,24.9,25.3,20.8,15.9,88,74,49,29.85,29.80,17,8,28,0.00
2013-3-21,31.2,26.7,21.5,25.9,18.8,13.4,92,73,50,29.84,29.73,11,6,20,0.00
2013-3-22,32.9,29.1,25.7,29.1,25.4,22.2,94,86,73,29.92,29.74,17,8,30,0.01
2013-3-23,36.1,33.1,29.7,28.0,26.3,23.3,93,76,62,30.02,29.90,17,10,27,0.01
2013-3-24,36.4,33.6,29.1,28.1,25.4,21.1,88,72,55,30.02,29.76,11,4,18,0.00
2013-3-25,38.8,35.6,32.2,31.7,27.8,24.6,87,73,62,29.76,29.63,13,6,21,0.00
2013-3-26,42.4,38.2,33.2,33.4,30.0,27.5,92,73,56,29.94,29.73,9,4,17,0.00
2013-3-27,44.4,37.9,33.5,34.8,31.1,27.4,95,77,58,30.06,29.91,15,7,25,0.28
2013-3-28,43.7,38.8,34.3,35.7,32.5,27.4,94,79,53,30.20,30.05,13,7,20,0.01
2013-3-29,47.5,41.7,37.3,34.6,32.3,27.1,86,70,46,30.21,30.13,13,6,20,0.00
2013-3-30,47.7,40.6,32.0,31.5,26.2,18.6,81,59,33,30.21,30.06,10,4,16,0.00
2013-3-31,57.9,45.5,38.9,43.5,32.9,24.4,93,64,37,30.06,29.62,18,8,37,0.09
2013-4-1,45.7,36.5,27.3,41.4,27.2,11.7,95,71,37,29.95,29.57,21,11,56,0.13
2013-4-2,34.5,29.1,24.4,27.9,21.0,16.2,89,72,50,30.11,29.95,19,10,36,0.00
2013-4-3,35.5,31.0,27.0,24.7,18.9,14.0,84,61,42,30.38,30.11,21,11,32,0.00
2013-4-4,55.4,38.3,26.9,22.5,20.2,17.0,73,51,22,30.37,29.92,10,4,19,0.00
2013-4-5,41.4,38.3,32.6,31.2,25.6,16.3,74,61,38,30.16,29.88,20,10,31,0.00
2013-4-6,44.5,36.1,30.2,23.5,19.4,14.0,69,51,34,30.35,30.06,12,5,22,0.00
2013-4-7,71.0,53.6,43.5,47.1,32.9,20.4,73,47,35,30.07,29.70,21,12,56,0.00
2013-4-8,51.3,44.9,40.9,45.3,36.8,33.9,93,74,58,30.14,29.75,10,4,19,0.17
2013-4-9,57.4,48.1,42.7,51.3,43.7,40.1,97,85,74,30.12,29.74,17,7,32,0.83
2013-4-10,46.5,41.6,39.0,45.6,40.7,38.0,100,97,94,30.11,29.89,11,5,26,0.90
2013-4-11,39.4,34.9,32.1,38.3,31.6,25.9,96,88,65,30.17,29.98,13,3,24,0.33
2013-4-12,50.6,40.9,34.3,47.9,37.8,31.7,98,89,72,30.00,29.55,16,9,37,0.96
2013-4-13,46.5,42.8,40.2,38.0,34.8,30.8,83,73,58,29.93,29.77,14,8,29,0.00
2013-4-14,43.3,39.4,36.2,34.3,29.4,25.8,90,68,52,30.22,29.93,12,6,26,0.07
2013-4-15,73.5,54.9,36.8,49.2,39.4,25.8,71,57,38,30.20,30.00,13,8,30,0.00
2013-4-16,65.8,56.4,44.3,58.6,49.3,34.1,97,78,64,30.24,29.95,17,9,38,0.91
2013-4-17,51.4,45.3,38.7,37.8,33.8,30.3,80,65,47,30.38,30.24,10,5,15,0.00
2013-4-18,77.7,61.4,44.7,58.8,48.9,32.9,76,64,46,30.27,29.71,20,10,42,0.01
2013-4-19,73.6,59.6,42.3,60.9,50.2,31.6,87,71,60,29.76,29.35,20,12,60,0.17
2013-4-20,43.4,39.0,34.4,34.0,27.1,20.3,88,63,50,30.42,29.73,20,11,32,0.02
2013-4-21,39.2,35.4,31.7,25.5,21.5,12.0,71,58,34,30.70,30.42,9,5,16,0.00
2013-4-22,57.6,46.6,32.9,30.8,26.0,21.5,67,47,29,30.63,30.36,15,8,27,0.00
2013-4-23,60.9,51.3,40.5,39.1,34.5,28.6,71,53,41,30.36,29.96,13,8,24,0.00
2013-4-24,68.8,54.5,39.9,55.5,44.2,34.5,90,69,50,29.98,29.57,17,9,41,0.21
2013-4-25,54.2,44.1,37.0,39.8,33.2,26.3,92,68,35,30.31,29.98,15,5,29,0.19
2013-4-26,49.0,44.2,38.7,40.3,33.9,29.1,92,69,48,30.49,30.31,10,4,16,0.02
2013-4-27,63.4,52.3,39.5,37.9,34.8,31.3,76,53,35,30.45,30.23,9,5,15,0.00
2013-4-28,74.5,61.5,51.5,48.9,40.3,35.6,86,48,25,30.24,30.02,14,8,30,0.06
2013-4-29,64.5,57.5,50.7,52.8,49.9,47.0,90,76,61,30.06,29.98,12,8,27,0.07
2013-4-30,72.3,62.9,55.4,55.3,53.3,51.4,92,72,52,30.22,30.05,12,8,28,0.03
2013-5-1,76.9,66.4,58.5,52.7,44.1,34.5,77,49,23,30.34,30.22,11,6,22,0.00
2013-5-2,73.0,64.6,55.3,43.7,38.6,33.6,49,39,25,30.41,30.26,10,6,15,0.00
2013-5-3,75.6,66.9,56.4,47.9,43.2,36.3,61,43,32,30.30,30.21,10,6,17,0.00
2013-5-4,73.4,63.2,53.5,44.8,41.9,37.4,60,46,34,30.29,30.15,10,5,19,0.00
2013-5-5,71.5,63.2,50.8,46.8,43.7,38.8,75,50,39,30.20,30.09,8,4,12,0.00
2013-5-6,73.9,62.5,53.5,45.8,39.7,30.9,58,44,23,30.17,30.02,9,5,15,0.00
2013-5-7,72.3,65.6,58.0,54.8,51.5,44.5,76,61,50,30.12,30.01,9,4,13,0.00
2013-5-8,69.9,63.6,58.3,60.9,56.1,48.6,94,77,60,30.06,29.92,11,5,22,0.02
2013-5-9,65.2,60.6,56.1,59.7,57.6,55.3,97,90,79,29.94,29.86,9,3,15,0.25
2013-5-10,74.2,62.8,54.8,63.6,57.7,52.5,96,84,65,29.95,29.72,11,5,24,0.36
2013-5-11,59.9,54.4,48.5,58.9,50.7,44.6,97,88,73,29.77,29.64,12,6,22,0.13
2013-5-12,50.5,45.0,40.2,46.3,36.5,30.1,92,73,48,29.91,29.68,19,9,40,0.03
2013-5-13,49.7,42.7,37.7,35.5,32.5,28.9,80,68,48,30.13,29.91,14,8,29,0.00
2013-5-14,55.5,46.0,34.8,38.0,34.2,30.4,92,66,39,30.17,29.98,8,4,14,0.00
2013-5-15,80.2,60.3,46.5,61.3,45.8,31.4,91,60,41,29.98,29.51,20,9,36,0.08
2013-5-16,72.5,63.2,51.3,47.8,43.4,35.1,73,50,30,30.00,29.71,18,8,29,0.00
2013-5-17,64.1,55.1,45.3,44.5,41.7,37.9,85,62,41,30.23,30.00,7,2,10,0.00
2013-5-18,67.0,58.6,47.0,51.0,42.9,36.5,76,57,45,30.27,30.15,9,5,15,0.00
2013-5-19,79.0,67.2,58.1,63.4,57.9,51.0,85,73,58,30.15,29.98,10,6,22,0.00
2013-5-20,80.0,71.1,63.8,67.3,63.0,58.8,86,76,62,30.03,29.85,9,5,14,0.00
2013-5-21,82.1,69.5,57.8,70.9,64.0,56.4,95,83,68,29.92,29.74,17,4,38,0.06
2013-5-22,84.2,71.7,57.7,73.0,66.1,56.3,98,84,61,29.79,29.62,13,4,29,0.31
2013-5-23,75.6,67.0,45.2,64.9,59.4,43.9,95,77,58,29.88,29.68,11,6,20,0.54
2013-5-24,51.1,43.5,38.4,43.7,39.2,37.0,97,86,62,30.19,29.88,13,10,23,2.39
2013-5-25,57.4,49.3,43.1,42.1,37.8,33.6,80,65,46,30.22,30.13,19,10,30,0.00
2013-5-26,60.9,53.3,47.3,41.9,37.8,33.0,77,57,39,30.20,30.11,15,10,25,0.00
2013-5-27,66.4,57.0,45.0,44.8,38.2,27.9,80,52,25,30.28,30.13,9,4,15,0.00
2013-5-28,62.7,58.2,53.8,59.1,50.2,37.2,97,77,47,30.16,29.93,12,6,25,0.69
2013-5-29,81.6,71.2,59.2,69.0,64.0,58.3,99,80,54,30.00,29.88,14,6,31,0.86
2013-5-30,88.8,78.3,67.6,68.4,64.3,56.0,87,64,34,30.09,30.00,10,4,17,0.00
2013-5-31,90.4,79.5,70.0,69.3,65.5,62.8,80,64,41,30.05,29.90,8,4,16,0.00
2013-6-1,88.1,76.4,69.0,70.6,66.9,63.1,96,74,52,29.95,29.74,15,5,26,0.95
2013-6-2,76.5,69.8,56.3,68.6,63.3,51.9,98,81,53,29.86,29.66,17,7,34,1.38
2013-6-3,62.4,55.2,51.2,52.4,45.4,41.0,87,70,49,30.01,29.86,13,8,22,0.00
2013-6-4,65.2,57.3,49.9,47.1,41.9,34.7,80,59,37,30.16,30.01,13,6,20,0.00
2013-6-5,64.3,58.6,53.5,52.8,44.9,38.2,78,61,42,30.22,30.08,10,4,16,0.00
2013-6-6,57.8,55.9,53.4,56.8,53.2,46.9,98,91,67,30.09,29.85,12,5,23,2.64
2013-6-7,59.4,56.8,54.5,59.1,56.2,53.9,99,98,97,29.85,29.80,5,3,10,0.44
2013-6-8,65.3,58.1,54.9,60.4,56.4,54.6,100,94,78,30.07,29.80,6,3,11,0.40
2013-6-9,72.3,64.1,55.6,57.0,54.8,52.2,89,73,54,30.19,30.07,7,4,11,0.01
2013-6-10,69.2,65.2,63.5,64.1,60.3,55.4,96,84,73,30.13,29.70,12,7,30,0.16
2013-6-11,66.4,63.4,58.8,64.4,61.0,54.8,98,92,80,29.83,29.62,15,7,24,0.95
2013-6-12,71.3,63.9,56.2,58.8,55.7,53.4,91,76,59,29.94,29.77,8,4,13,0.00
2013-6-13,66.3,60.8,55.7,59.0,57.4,54.0,98,89,74,29.78,29.52,15,7,27,1.07
2013-6-14,72.3,62.8,53.8,60.1,56.6,53.0,98,82,63,29.96,29.78,11,6,17,0.01
2013-6-15,72.8,64.8,55.4,56.3,51.0,40.3,80,63,33,30.04,29.93,10,4,15,0.00
2013-6-16,75.2,67.5,62.2,66.6,60.4,54.3,97,79,66,29.93,29.68,14,6,25,0.38
2013-6-17,76.4,68.8,63.1,64.7,60.8,57.4,93,76,59,29.92,29.80,11,4,21,0.00
2013-6-18,67.1,60.9,55.5,57.7,51.6,46.8,89,73,50,30.02,29.89,10,5,16,0.01
2013-6-19,65.3,59.6,54.8,52.5,45.7,36.3,83,62,37,30.20,30.02,8,4,14,0.00
2013-6-20,70.6,61.4,48.1,51.9,45.8,35.6,89,60,29,30.26,30.19,8,3,11,0.00
2013-6-21,77.6,67.8,55.0,57.8,53.3,46.1,82,61,42,30.27,30.16,8,3,12,0.00
2013-6-22,84.4,73.9,63.8,74.3,66.3,55.3,96,78,54,30.17,29.99,8,4,19,0.84
2013-6-23,87.2,79.3,71.5,74.7,70.5,66.5,94,75,55,30.04,29.96,8,4,18,0.03
2013-6-24,87.0,80.3,73.3,72.5,67.7,64.0,81,66,48,30.01,29.90,14,6,26,0.00
2013-6-25,82.1,76.3,68.8,72.1,67.8,65.0,93,75,64,29.92,29.77,12,5,22,0.21
2013-6-26,83.4,75.3,68.8,71.2,68.2,65.3,94,79,63,29.80,29.75,10,4,17,0.00
2013-6-27,80.5,73.4,66.3,73.3,68.2,63.9,93,84,72,29.79,29.59,7,3,14,0.00
2013-6-28,68.4,64.4,61.8,66.2,63.0,60.6,97,96,91,29.61,29.50,9,4,14,0.44
2013-6-29,73.0,66.1,62.0,65.6,62.6,61.3,99,89,71,29.68,29.50,7,2,11,0.92
2013-6-30,73.5,68.9,62.6,66.3,63.8,60.8,95,84,71,29.93,29.68,7,3,13,0.00
2013-7-1,67.1,66.1,64.8,65.0,63.1,62.1,94,90,87,29.99,29.91,10,6,15,0.07
2013-7-2,71.8,67.5,61.2,67.5,64.9,59.3,98,91,85,30.10,30.01,15,3,15,0.07
2013-7-3,82.7,72.0,64.7,74.3,69.3,64.0,98,92,74,30.14,30.08,8,2,14,0.71
2013-7-4,85.8,75.4,70.3,73.3,71.0,69.2,97,87,60,30.16,30.08,7,3,13,0.13
2013-7-5,84.0,76.4,71.7,75.7,71.7,69.4,95,86,69,30.12,30.04,11,3,20,0.13
2013-7-6,86.3,76.9,69.5,70.9,68.0,64.7,92,75,50,30.13,30.01,5,3,14,0.00
2013-7-7,83.9,77.0,69.7,74.4,69.6,66.2,98,79,61,30.05,29.91,10,5,22,2.14
2013-7-8,81.5,75.3,70.8,72.8,70.1,66.2,94,84,72,30.03,29.95,9,3,13,0.13
2013-7-9,83.7,75.8,70.8,74.2,70.8,68.3,97,85,65,30.03,29.88,6,2,13,0.07
2013-7-10,86.9,78.2,71.5,74.6,71.3,65.2,96,80,64,29.88,29.68,10,6,26,0.00
2013-7-11,75.6,69.5,64.6,67.4,61.9,58.6,89,77,62,30.01,29.80,10,6,19,0.00
2013-7-12,73.7,68.7,63.2,66.9,63.5,60.0,96,84,66,30.18,30.01,7,2,11,0.00
2013-7-13,81.1,73.0,65.5,71.7,67.6,63.7,95,84,69,30.24,30.15,8,2,15,0.00
2013-7-14,85.2,77.7,70.2,74.1,70.4,68.3,94,79,60,30.29,30.23,7,3,10,0.00
2013-7-15,86.0,80.0,74.3,74.1,69.9,63.6,90,73,49,30.28,30.20,8,3,12,0.00
2013-7-16,88.0,80.4,71.7,71.7,67.9,65.3,88,67,50,30.27,30.18,9,4,13,0.00
2013-7-17,92.3,83.4,73.7,79.2,73.6,68.7,87,73,55,30.20,30.04,11,4,21,0.00
2013-7-18,88.0,82.2,74.8,79.2,75.3,69.0,93,80,68,30.07,29.92,12,3,32,0.46
2013-7-19,91.7,82.6,70.0,76.4,72.1,66.4,92,72,50,29.92,29.68,25,8,57,0.49
2013-7-20,80.3,73.9,68.8,70.7,65.4,57.0,97,77,46,29.87,29.68,12,5,22,0.82
2013-7-21,72.6,69.1,64.9,64.7,60.1,56.9,84,73,62,30.01,29.86,8,4,13,0.00
2013-7-22,77.5,70.2,63.2,66.7,61.9,57.1,91,75,60,30.00,29.77,8,4,14,0.03
2013-7-23,84.7,74.5,68.5,71.2,66.9,59.2,95,79,49,29.77,29.58,12,4,22,0.02
2013-7-24,68.8,62.6,56.7,60.0,53.1,48.4,84,72,59,30.04,29.67,15,8,26,0.00
2013-7-25,71.0,63.1,52.6,57.5,53.1,48.8,92,71,48,30.13,30.04,8,4,15,0.00
2013-7-26,74.3,65.7,54.4,60.3,55.0,49.8,92,70,45,30.12,30.00,7,3,11,0.00
2013-7-27,79.9,69.9,59.9,68.0,62.5,54.6,96,78,57,30.00,29.81,8,5,17,0.13
2013-7-28,70.4,67.6,62.2,67.6,63.3,58.9,97,87,72,29.97,29.80,8,4,20,0.15
2013-7-29,72.0,65.0,58.7,59.8,56.9,52.1,92,76,53,30.12,29.97,8,4,15,0.00
2013-7-30,73.5,66.7,58.2,61.7,58.8,55.9,93,76,60,30.19,30.12,9,4,15,0.00
2013-7-31,80.8,69.5,59.1,68.1,61.3,56.8,93,77,48,30.15,29.92,7,3,12,0.00
2013-8-1,75.0,69.4,65.8,69.1,64.3,61.2,97,84,67,29.92,29.76,16,5,30,0.89
2013-8-2,74.5,66.8,61.1,64.4,61.9,59.8,96,85,63,29.89,29.82,7,3,14,0.68
2013-8-3,74.5,68.0,62.0,62.5,60.1,54.1,97,78,50,29.91,29.81,12,5,21,0.64
2013-8-4,69.5,65.7,61.0,60.5,56.4,52.8,89,73,56,30.04,29.91,15,8,25,0.00
2013-8-5,72.8,65.2,55.5,59.2,54.9,48.1,92,71,45,30.10,30.02,8,4,15,0.00
2013-8-6,78.3,66.8,56.0,63.2,57.7,53.4,92,75,44,30.06,29.98,8,4,14,0.00
2013-8-7,81.1,72.8,64.9,69.0,64.9,60.5,87,77,64,29.99,29.86,11,6,25,0.00
2013-8-8,80.1,73.5,67.5,71.5,68.6,64.7,96,85,72,29.95,29.89,8,3,15,0.08
2013-8-9,75.7,70.9,66.9,70.2,67.2,60.7,98,89,61,29.90,29.83,9,3,16,4.96
2013-8-10,70.3,66.4,62.2,61.9,56.3,48.3,90,71,49,30.08,29.90,13,6,20,0.00
2013-8-11,73.0,65.3,56.2,59.5,56.6,51.9,93,74,57,30.12,30.03,7,4,12,0.00
2013-8-12,77.4,69.0,61.6,65.1,61.0,57.6,87,76,55,30.05,29.84,5,3,10,0.00
2013-8-13,72.8,66.2,60.0,66.7,60.8,49.9,97,83,62,29.85,29.73,16,7,30,0.72
2013-8-14,67.9,61.1,54.9,56.0,51.9,48.6,93,73,51,30.07,29.82,15,8,27,0.05
2013-8-15,72.7,63.5,52.8,57.7,52.7,49.6,90,69,48,30.13,30.06,12,5,21,0.00
2013-8-16,75.2,65.9,55.2,58.9,55.4,52.4,91,71,50,30.20,30.10,7,3,11,0.00
2013-8-17,78.0,68.1,57.3,61.7,58.4,55.0,92,73,50,30.29,30.20,8,4,12,0.00
2013-8-18,80.2,69.8,60.2,64.7,60.8,56.7,89,74,48,30.25,30.10,6,3,9,0.00
2013-8-19,79.6,71.1,62.7,67.4,62.3,58.9,90,75,52,30.10,30.01,7,3,12,0.00
2013-8-20,82.4,72.8,62.4,65.7,62.2,58.8,89,71,48,30.11,30.03,9,3,16,0.00
2013-8-21,85.6,74.8,63.9,67.8,64.0,60.6,90,71,49,30.15,30.00,7,3,13,0.00
2013-8-22,84.0,74.7,67.9,72.2,66.9,60.7,88,77,61,30.01,29.87,12,6,24,0.03
2013-8-23,72.1,67.3,61.8,63.4,58.9,55.2,82,75,64,30.20,29.96,8,3,13,0.00
2013-8-24,73.5,64.8,55.1,58.9,53.7,47.3,93,70,41,30.35,30.20,7,3,12,0.00
2013-8-25,82.3,69.9,55.5,62.5,56.6,52.6,91,65,38,30.34,30.11,8,4,15,0.00
2013-8-26,77.3,70.7,66.6,71.0,66.7,60.2,97,88,68,30.13,29.90,11,5,22,3.57
2013-8-27,80.8,72.8,68.5,73.2,69.9,67.8,98,91,77,29.94,29.86,6,2,10,0.00
2013-8-28,79.7,74.4,69.3,72.5,70.4,67.5,96,88,76,29.93,29.83,8,3,12,0.00
2013-8-29,77.8,73.0,68.6,72.3,69.8,66.5,98,90,73,30.04,29.93,6,2,10,0.06
2013-8-30,84.2,74.8,64.3,71.2,67.0,63.1,96,79,51,30.00,29.74,6,3,13,0.01
2013-8-31,78.0,72.9,69.9,72.8,70.1,67.8,96,91,82,29.85,29.70,10,4,15,0.38
2013-9-1,77.6,71.9,68.2,70.5,68.6,67.2,97,90,78,29.84,29.74,9,4,13,0.38
2013-9-2,83.2,72.2,65.6,73.8,68.4,58.9,98,88,69,29.77,29.65,12,5,24,0.59
2013-9-3,66.7,64.7,62.1,60.1,58.1,56.3,85,79,73,29.92,29.76,11,6,22,0.00
2013-9-4,77.8,67.9,56.9,64.3,56.9,49.3,91,70,38,29.97,29.92,13,6,24,0.00
2013-9-5,67.5,61.1,53.9,61.4,48.9,40.6,84,65,47,30.22,29.95,12,5,20,0.00
2013-9-6,69.5,58.3,46.3,53.4,47.7,43.3,91,70,46,30.29,30.09,7,4,11,0.00
2013-9-7,65.0,60.3,54.6,60.7,55.3,49.9,92,83,71,30.09,29.86,6,4,12,0.05
2013-9-8,65.5,61.5,52.7,64.6,51.1,42.3,97,70,48,30.11,29.84,13,5,24,0.32
2013-9-9,77.1,61.8,47.5,62.4,52.8,44.5,92,74,49,30.16,29.96,9,4,21,0.00
2013-9-10,90.6,79.0,67.3,77.4,70.8,61.6,95,77,61,29.98,29.87,10,6,23,0.62
2013-9-11,92.0,83.4,76.2,76.5,73.0,67.2,85,72,51,30.00,29.86,10,5,24,0.00
2013-9-12,76.2,70.3,63.4,69.6,66.5,59.5,95,88,75,29.90,29.70,15,3,29,0.17
2013-9-13,63.7,55.8,52.1,60.4,52.2,46.5,94,88,79,30.01,29.72,10,6,19,2.26
2013-9-14,58.2,53.6,48.9,49.1,44.9,41.9,82,73,58,30.12,30.00,10,5,16,0.00
2013-9-15,68.1,57.5,47.8,54.9,49.1,43.6,92,74,58,30.16,30.05,12,4,25,0.29
2013-9-16,54.9,52.1,48.4,53.6,48.4,41.8,96,88,70,30.38,30.07,9,4,17,0.86
2013-9-17,63.4,51.7,41.0,49.3,43.8,39.1,94,76,48,30.50,30.31,7,4,15,0.00
2013-9-18,70.1,58.3,46.8,55.4,48.4,41.7,90,72,38,30.31,30.10,7,4,13,0.00
2013-9-19,77.7,64.1,53.6,61.1,54.8,47.9,91,73,48,30.12,30.01,7,3,12,0.00
2013-9-20,83.1,70.1,59.5,66.5,61.4,56.2,91,75,56,30.01,29.76,10,5,18,0.00
2013-9-21,72.5,64.0,54.8,62.9,60.5,53.7,97,89,68,29.76,29.62,17,5,26,3.15
2013-9-22,54.8,52.9,51.5,53.6,46.1,41.9,96,78,65,30.01,29.71,15,7,23,0.09
2013-9-23,55.0,52.0,47.5,45.1,43.3,41.1,84,72,65,30.16,30.01,10,6,17,0.00
2013-9-24,59.4,52.2,42.8,48.3,44.5,40.9,94,76,52,30.15,30.01,9,4,14,0.00
2013-9-25,64.7,55.4,45.1,53.7,47.5,42.9,93,76,54,30.02,29.96,6,3,10,0.00
2013-9-26,66.7,57.2,47.1,57.4,51.4,45.2,93,82,65,30.15,30.00,8,3,13,0.00
2013-9-27,62.6,57.7,51.6,56.2,53.2,49.3,94,85,73,30.27,30.15,7,2,13,0.00
2013-9-28,72.0,59.7,48.8,58.6,53.4,47.9,97,81,59,30.31,30.18,8,4,15,0.00
2013-9-29,75.0,62.3,51.5,57.6,52.8,48.6,90,72,51,30.18,29.99,10,5,19,0.00
2013-9-30,74.7,64.6,57.5,62.9,57.2,51.6,86,77,64,30.01,29.93,6,3,12,0.00
2013-10-1,72.4,66.5,60.8,61.9,60.0,57.4,94,80,64,30.02,29.90,7,2,11,0.00
2013-10-2,73.0,67.5,61.3,64.3,60.3,52.1,90,78,54,30.08,29.90,11,5,18,0.00
2013-10-3,70.5,61.2,52.3,57.9,53.2,47.8,94,76,45,30.13,30.02,5,3,10,0.01
2013-10-4,63.3,61.4,59.1,62.7,59.0,54.3,98,92,81,30.07,29.99,7,2,13,0.79
2013-10-5,61.7,60.7,59.9,59.7,57.9,56.2,95,90,83,30.11,30.04,7,2,13,0.01
2013-10-6,79.3,68.6,60.7,72.5,65.4,59.2,99,90,74,30.03,29.73,11,5,29,0.53
2013-10-7,73.3,61.8,51.7,66.9,56.3,47.6,96,82,70,30.02,29.61,15,7,31,1.13
2013-10-8,60.3,53.9,47.9,49.6,46.4,44.2,94,77,59,30.36,30.03,10,4,17,0.00
2013-10-9,65.7,54.1,43.6,53.0,47.4,42.1,96,79,52,30.42,30.28,7,3,12,0.00
2013-10-10,64.1,54.1,44.0,50.2,46.2,41.1,92,76,49,30.29,30.17,7,3,13,0.00
2013-10-11,65.8,56.0,48.4,55.7,51.1,45.7,95,84,62,30.17,30.12,7,2,11,0.00
2013-10-12,74.0,59.7,45.8,53.4,47.6,35.3,96,70,25,30.20,30.13,8,4,16,0.00
2013-10-13,72.5,62.7,56.6,61.7,56.3,46.1,96,80,63,30.27,30.19,9,6,21,0.13
2013-10-14,61.2,57.4,51.6,60.1,53.6,47.3,97,88,66,30.33,30.25,8,4,14,1.04
2013-10-15,67.5,57.1,46.5,57.3,52.0,44.9,98,84,66,30.30,29.96,9,4,19,0.00
2013-10-16,65.3,61.7,57.6,59.6,55.4,50.2,94,80,65,29.96,29.75,10,6,22,0.23
2013-10-17,63.9,57.1,51.9,54.7,50.7,47.0,97,80,57,29.88,29.66,7,3,16,0.74
2013-10-18,60.0,53.6,50.3,52.9,45.2,37.8,96,75,46,29.91,29.70,12,6,27,0.23
2013-10-19,63.1,55.0,45.4,47.7,44.6,41.6,89,69,50,29.90,29.62,15,6,25,0.00
2013-10-20,54.1,47.9,42.5,45.2,41.5,38.6,90,79,59,29.99,29.73,9,5,19,0.00
2013-10-21,66.9,56.3,46.7,50.8,42.0,38.7,90,61,36,29.99,29.79,11,6,25,0.00
2013-10-22,54.1,47.2,41.9,48.7,37.7,27.4,95,71,45,29.85,29.73,13,6,30,0.00
2013-10-23,45.8,41.8,36.9,39.3,35.5,30.9,87,78,65,29.83,29.70,11,4,21,0.00
2013-10-24,47.6,40.5,35.1,37.9,33.9,31.0,93,78,56,30.01,29.78,16,8,33,0.00
2013-10-25,48.4,42.3,36.1,39.6,37.0,33.2,94,82,65,30.19,30.01,12,5,19,0.00
2013-10-26,46.9,43.7,39.3,37.7,33.5,29.1,90,68,53,30.14,29.79,13,8,26,0.00
2013-10-27,46.6,43.0,38.7,38.6,36.8,34.4,91,79,66,30.07,29.80,10,5,19,0.00
2013-10-28,47.8,43.3,36.3,40.9,32.7,24.2,81,67,46,30.40,30.03,13,5,22,0.00
2013-10-29,44.1,37.4,30.3,31.8,28.1,23.8,78,70,56,30.50,30.32,7,4,13,0.55
2013-10-30,55.0,44.5,38.0,44.2,39.4,31.6,93,83,61,30.32,30.11,7,3,12,0.07
2013-10-31,66.8,55.6,44.0,60.0,52.0,39.8,97,88,75,30.11,29.39,14,7,28,0.35
2013-11-1,65.6,58.5,49.2,59.7,51.2,44.2,95,77,58,29.67,29.17,22,11,60,0.03
2013-11-2,50.6,45.7,38.9,47.5,43.0,33.0,95,91,79,30.00,29.60,12,5,22,0.00
2013-11-3,39.2,35.3,32.0,33.2,25.9,22.4,79,69,58,30.55,30.00,9,5,17,0.01
2013-11-4,41.6,35.1,26.8,26.6,22.0,15.9,86,61,36,30.68,30.47,9,5,17,0.34
2013-11-5,58.2,46.8,37.2,37.8,30.5,21.8,60,53,45,30.49,30.33,10,6,19,0.15
2013-11-6,64.1,56.3,47.4,54.8,44.9,35.2,87,66,54,30.34,29.79,13,8,28,0.06
2013-11-7,58.5,45.2,39.8,55.7,39.4,31.1,94,80,59,29.98,29.78,16,9,28,0.04
2013-11-8,41.6,39.4,36.4,34.1,31.2,27.3,89,73,57,30.23,29.94,18,9,29,0.01
2013-11-9,50.4,42.8,37.1,43.3,32.8,28.9,88,68,53,30.23,29.77,11,6,22,0.00
2013-11-10,50.8,45.0,40.9,43.4,36.9,31.4,86,73,66,30.14,29.77,25,11,53,0.00
2013-11-11,46.2,38.6,30.9,37.5,32.8,26.0,96,80,58,30.16,29.92,20,8,40,0.00
2013-11-12,32.7,29.6,27.9,27.1,22.5,17.3,88,75,64,30.40,30.10,27,15,56,0.33
2013-11-13,38.4,31.4,22.9,27.9,21.3,15.5,78,66,53,30.44,30.09,20,8,47,0.01
2013-11-14,51.2,42.9,35.6,30.5,21.6,15.5,64,44,26,30.12,30.00,12,8,28,0.51
2013-11-15,52.6,47.4,42.8,27.0,23.6,20.0,43,39,35,30.13,30.05,10,5,19,0.18
2013-11-16,59.5,51.7,45.3,42.3,34.4,24.5,70,52,38,30.25,30.04,9,5,20,0.00
2013-11-17,61.2,55.6,51.7,55.4,50.2,42.3,93,82,69,30.04,29.36,16,10,54,0.23
2013-11-18,55.9,47.7,37.0,49.7,37.3,28.4,88,67,59,29.88,29.35,23,13,62,0.21
2013-11-19,38.2,36.1,32.3,30.4,27.0,22.5,75,69,64,30.47,29.87,18,11,34,0.00
2013-11-20,38.2,32.0,25.4,24.2,21.1,18.2,79,64,45,30.63,30.47,9,4,15,0.00
2013-11-21,46.3,39.9,31.8,37.2,25.9,16.1,87,58,46,30.49,30.27,12,7,22,0.01
2013-11-22,47.0,42.2,33.9,46.2,40.4,28.8,97,93,80,30.27,29.99,19,6,37,0.16
2013-11-23,36.1,29.2,19.9,28.9,22.6,9.2,94,77,55,30.19,30.00,37,17,73,0.73
2013-11-24,24.2,21.6,18.5,18.4,14.6,11.4,90,75,60,30.42,30.16,29,18,57,0.00
2013-11-25,35.5,28.8,19.8,21.9,15.1,10.4,83,59,36,30.42,30.13,11,7,25,0.00
2013-11-26,37.2,34.3,32.7,31.9,28.7,22.2,96,80,60,30.17,29.84,10,5,25,0.03
2013-11-27,35.9,31.7,24.3,34.0,28.6,18.0,97,88,73,29.89,29.61,27,12,56,2.06
2013-11-28,28.7,24.6,20.8,19.7,16.8,14.4,87,72,58,30.46,29.89,26,10,56,0.00
2013-11-29,27.6,24.4,17.1,22.4,17.1,12.3,92,74,62,30.77,30.45,12,5,28,0.00
2013-11-30,32.1,24.5,14.1,23.8,17.4,10.4,92,75,58,30.76,30.22,12,7,25,0.00
2013-12-1,39.4,34.6,30.6,34.4,29.6,23.7,95,82,71,30.22,29.98,8,5,16,0.30
2013-12-2,41.7,37.8,34.4,35.4,34.0,31.8,95,87,74,29.98,29.87,5,3,9,0.24
2013-12-3,39.8,35.1,31.3,31.7,30.7,29.2,92,84,67,30.03,29.92,6,2,12,0.02
2013-12-4,47.7,39.4,32.7,40.9,35.5,29.1,95,86,74,30.06,29.91,9,5,21,0.01
2013-12-5,62.8,51.5,40.9,55.1,45.5,32.5,89,80,60,30.01,29.74,12,8,26,0.00
2013-12-6,40.6,34.7,32.3,34.5,28.8,24.0,94,79,69,30.26,30.01,12,7,20,0.52
2013-12-7,32.2,29.2,25.9,27.4,20.6,15.4,88,70,51,30.57,30.24,17,10,44,0.00
2013-12-8,29.2,26.0,21.2,24.3,16.2,13.2,91,66,53,30.61,30.25,10,6,22,0.00
2013-12-9,41.5,34.6,26.8,36.6,30.1,23.6,94,84,68,30.25,29.86,15,9,34,0.09
2013-12-10,34.8,25.8,21.0,26.5,16.8,10.6,92,69,53,30.07,29.92,18,12,44,0.00
2013-12-11,26.1,22.8,19.2,21.2,14.3,9.9,92,70,55,30.29,30.07,20,11,48,0.00
2013-12-12,20.9,16.7,12.5,15.4,11.9,7.2,91,82,61,30.34,30.05,14,8,33,0.00
2013-12-13,24.3,20.0,17.3,20.5,13.8,7.1,91,77,61,30.42,30.03,18,10,44,0.00
2013-12-14,21.5,13.5,8.4,19.8,10.4,4.7,93,87,73,30.50,29.81,9,6,17,0.00
2013-12-15,24.5,20.8,16.3,23.3,18.9,14.4,95,92,85,29.85,29.64,16,8,44,0.00
2013-12-16,20.8,16.6,9.0,18.2,13.9,6.3,92,89,85,30.22,29.85,16,8,50,0.00
2013-12-17,27.4,19.7,8.5,25.9,17.6,6.2,100,91,88,30.19,29.93,14,6,28,0.00
2013-12-18,32.0,28.8,25.2,24.9,23.6,21.4,94,81,68,30.08,29.94,12,6,23,0.03
2013-12-19,42.5,36.4,28.3,34.2,27.9,19.3,84,71,61,30.06,29.90,12,6,25,0.07
2013-12-20,45.2,39.9,36.1,42.2,37.8,33.9,98,92,84,30.03,29.80,7,3,14,0.36
2013-12-21,54.9,38.9,31.5,53.0,38.0,30.7,99,97,85,29.91,29.72,10,5,21,0.57
2013-12-22,44.1,35.6,31.6,43.6,34.8,30.8,99,97,90,29.98,29.57,9,2,19,0.75
2013-12-23,41.5,35.5,27.6,38.9,32.9,24.4,95,90,83,30.27,29.95,11,6,18,0.52
2013-12-24,27.6,20.6,12.6,24.4,18.6,10.0,94,92,88,30.51,30.23,19,8,48,0.00
2013-12-25,24.7,15.8,7.4,17.3,11.4,5.1,92,83,72,30.57,30.25,14,5,30,0.00
2013-12-26,31.4,27.9,24.7,28.6,21.6,16.9,92,77,68,30.29,30.09,11,6,24,0.00
2013-12-27,33.6,28.5,22.9,28.1,23.1,15.1,88,80,71,30.30,30.10,9,6,19,0.00
2013-12-28,43.6,39.7,33.5,35.4,32.3,27.7,86,75,62,30.10,29.94,11,6,21,0.15
2013-12-29,47.6,42.0,29.2,40.7,34.1,26.5,94,75,54,29.94,29.62,18,7,29,0.06
2013-12-30,29.1,19.3,16.2,26.5,15.1,10.5,92,84,76,30.25,29.76,21,12,48,0.00
2013-12-31,24.9,18.7,15.5,19.9,11.6,5.0,84,74,57,30.26,29.98,21,9,50,0.00
2014-1-1,20.2,17.7,13.8,15.0,11.4,8.0,91,77,61,30.43,30.25,16,6,36,0.00
2014-1-2,14.7,12.3,8.3,12.8,10.1,6.0,100,91,90,30.34,30.03,15,10,31,0.00